sensor_id;sensor_type;location;lat;lon;timestamp;pressure;altitude;pressure_sealevel;temperature;humidity
64388;BME280;50709;52.648;4.764;2023-01-28T00:00:51;103106.53;;;11.68;57.20
64388;BME280;50709;52.648;4.764;2023-01-28T00:03:16;103099.09;;;11.81;60.08
64388;BME280;50709;52.648;4.764;2023-01-28T00:05:42;103098.47;;;11.88;58.75
64388;BME280;50709;52.648;4.764;2023-01-28T00:08:07;103110.94;;;11.43;57.55
64388;BME280;50709;52.648;4.764;2023-01-28T00:10:33;103112.59;;;11.67;58.11
64388;BME280;50709;52.648;4.764;2023-01-28T00:12:58;103108.81;;;11.85;58.48
64388;BME280;50709;52.648;4.764;2023-01-28T00:15:24;103095.94;;;11.64;58.63
64388;BME280;50709;52.648;4.764;2023-01-28T00:17:50;103104.03;;;11.71;59.39
64388;BME280;50709;52.648;4.764;2023-01-28T00:20:16;103111.84;;;10.96;57.31
64388;BME280;50709;52.648;4.764;2023-01-28T00:22:46;103113.53;;;10.93;59.91
64388;BME280;50709;52.648;4.764;2023-01-28T00:25:12;103129.31;;;11.21;58.31
64388;BME280;50709;52.648;4.764;2023-01-28T00:27:38;103121.16;;;11.61;59.48
64388;BME280;50709;52.648;4.764;2023-01-28T00:30:03;103123.50;;;11.30;59.25
64388;BME280;50709;52.648;4.764;2023-01-28T00:32:29;103093.09;;;11.07;59.75
64388;BME280;50709;52.648;4.764;2023-01-28T00:34:55;103111.69;;;11.39;58.16
64388;BME280;50709;52.648;4.764;2023-01-28T00:37:21;103080.47;;;10.96;58.49
64388;BME280;50709;52.648;4.764;2023-01-28T00:39:46;103116.97;;;11.17;60.03
64388;BME280;50709;52.648;4.764;2023-01-28T00:42:12;103120.34;;;11.38;60.14
64388;BME280;50709;52.648;4.764;2023-01-28T00:44:37;103105.34;;;11.08;59.91
64388;BME280;50709;52.648;4.764;2023-01-28T00:47:03;103082.25;;;10.97;61.11
64388;BME280;50709;52.648;4.764;2023-01-28T00:49:28;103090.91;;;10.71;58.48
64388;BME280;50709;52.648;4.764;2023-01-28T00:51:55;103084.00;;;10.96;60.41
64388;BME280;50709;52.648;4.764;2023-01-28T00:54:20;103111.97;;;11.23;59.45
64388;BME280;50709;52.648;4.764;2023-01-28T00:56:46;103108.53;;;11.50;58.10
64388;BME280;50709;52.648;4.764;2023-01-28T00:59:11;103105.66;;;11.42;58.79
64388;BME280;50709;52.648;4.764;2023-01-28T01:01:38;103088.66;;;11.05;58.67
64388;BME280;50709;52.648;4.764;2023-01-28T01:04:03;103089.09;;;10.93;60.11
64388;BME280;50709;52.648;4.764;2023-01-28T01:06:35;103040.75;;;10.82;59.45
64388;BME280;50709;52.648;4.764;2023-01-28T01:09:07;103099.34;;;10.87;59.66
64388;BME280;50709;52.648;4.764;2023-01-28T01:11:33;103093.38;;;10.91;59.57
64388;BME280;50709;52.648;4.764;2023-01-28T01:14:02;103079.53;;;10.93;61.47
64388;BME280;50709;52.648;4.764;2023-01-28T01:16:30;103071.25;;;10.81;60.39
64388;BME280;50709;52.648;4.764;2023-01-28T01:18:58;103087.50;;;10.74;60.84
64388;BME280;50709;52.648;4.764;2023-01-28T01:21:26;103072.66;;;10.49;60.53
64388;BME280;50709;52.648;4.764;2023-01-28T01:23:52;103105.03;;;10.76;59.95
64388;BME280;50709;52.648;4.764;2023-01-28T01:26:17;103091.56;;;10.66;61.78
64388;BME280;50709;52.648;4.764;2023-01-28T01:28:44;103097.44;;;10.83;60.60
64388;BME280;50709;52.648;4.764;2023-01-28T01:31:12;103104.31;;;10.81;61.44
64388;BME280;50709;52.648;4.764;2023-01-28T01:33:40;103109.91;;;10.67;61.11
64388;BME280;50709;52.648;4.764;2023-01-28T01:36:06;103105.03;;;10.76;61.35
64388;BME280;50709;52.648;4.764;2023-01-28T01:38:31;103114.09;;;10.39;61.00
64388;BME280;50709;52.648;4.764;2023-01-28T01:41:00;103106.84;;;10.55;61.71
64388;BME280;50709;52.648;4.764;2023-01-28T01:44:06;103118.00;;;10.73;60.78
64388;BME280;50709;52.648;4.764;2023-01-28T01:46:40;103108.03;;;10.63;61.45
64388;BME280;50709;52.648;4.764;2023-01-28T01:49:18;103102.31;;;10.73;61.43
64388;BME280;50709;52.648;4.764;2023-01-28T01:51:48;103114.72;;;10.56;60.30
64388;BME280;50709;52.648;4.764;2023-01-28T01:54:18;103107.44;;;10.48;60.69
64388;BME280;50709;52.648;4.764;2023-01-28T01:56:46;103114.16;;;10.41;60.94
64388;BME280;50709;52.648;4.764;2023-01-28T01:59:23;103111.53;;;10.20;60.64
64388;BME280;50709;52.648;4.764;2023-01-28T02:01:51;103109.84;;;10.66;61.28
64388;BME280;50709;52.648;4.764;2023-01-28T02:04:22;103109.81;;;10.41;59.87
64388;BME280;50709;52.648;4.764;2023-01-28T02:06:49;103105.66;;;10.47;60.19
64388;BME280;50709;52.648;4.764;2023-01-28T02:09:32;103102.44;;;10.54;60.61
64388;BME280;50709;52.648;4.764;2023-01-28T02:12:20;103094.38;;;10.48;61.67
64388;BME280;50709;52.648;4.764;2023-01-28T02:15:13;103110.31;;;10.33;61.37
64388;BME280;50709;52.648;4.764;2023-01-28T02:17:41;103101.47;;;10.29;61.44
64388;BME280;50709;52.648;4.764;2023-01-28T02:28:17;103110.88;;;10.03;61.46
64388;BME280;50709;52.648;4.764;2023-01-28T02:31:10;103089.34;;;10.31;61.35
64388;BME280;50709;52.648;4.764;2023-01-28T02:33:57;103110.31;;;10.33;61.86
64388;BME280;50709;52.648;4.764;2023-01-28T02:39:24;103122.44;;;9.88;60.83
64388;BME280;50709;52.648;4.764;2023-01-28T02:41:56;103074.13;;;9.56;59.54
64388;BME280;50709;52.648;4.764;2023-01-28T02:44:42;103123.00;;;10.23;61.99
64388;BME280;50709;52.648;4.764;2023-01-28T02:47:12;103085.69;;;10.05;62.09
64388;BME280;50709;52.648;4.764;2023-01-28T02:49:58;103116.56;;;10.36;62.64
64388;BME280;50709;52.648;4.764;2023-01-28T02:52:35;103118.00;;;10.30;61.65
64388;BME280;50709;52.648;4.764;2023-01-28T03:03:34;103112.13;;;9.30;59.47
64388;BME280;50709;52.648;4.764;2023-01-28T03:06:08;103094.50;;;9.43;60.39
64388;BME280;50709;52.648;4.764;2023-01-28T03:08:57;103093.34;;;9.79;61.57
64388;BME280;50709;52.648;4.764;2023-01-28T03:11:45;103101.50;;;9.87;60.43
64388;BME280;50709;52.648;4.764;2023-01-28T03:14:32;103113.81;;;9.49;58.03
64388;BME280;50709;52.648;4.764;2023-01-28T03:17:25;103113.75;;;8.69;57.24
64388;BME280;50709;52.648;4.764;2023-01-28T03:20:12;103104.94;;;9.04;60.55
64388;BME280;50709;52.648;4.764;2023-01-28T03:23:00;103116.56;;;9.11;59.25
64388;BME280;50709;52.648;4.764;2023-01-28T03:25:48;103118.50;;;9.36;59.56
64388;BME280;50709;52.648;4.764;2023-01-28T03:28:34;103132.84;;;9.26;61.19
64388;BME280;50709;52.648;4.764;2023-01-28T03:31:21;103096.28;;;9.05;60.55
64388;BME280;50709;52.648;4.764;2023-01-28T03:34:07;103138.03;;;9.66;62.37
64388;BME280;50709;52.648;4.764;2023-01-28T03:36:53;103131.47;;;9.54;58.74
64388;BME280;50709;52.648;4.764;2023-01-28T03:39:27;103137.41;;;9.92;61.31
64388;BME280;50709;52.648;4.764;2023-01-28T03:44:23;103143.00;;;9.81;60.73
64388;BME280;50709;52.648;4.764;2023-01-28T03:47:08;103147.28;;;9.79;59.47
64388;BME280;50709;52.648;4.764;2023-01-28T03:49:41;103114.41;;;9.22;59.95
64388;BME280;50709;52.648;4.764;2023-01-28T03:52:07;103113.28;;;9.56;61.46
64388;BME280;50709;52.648;4.764;2023-01-28T03:54:33;103114.88;;;9.73;62.48
64388;BME280;50709;52.648;4.764;2023-01-28T03:57:00;103111.06;;;9.65;61.45
64388;BME280;50709;52.648;4.764;2023-01-28T03:59:26;103115.94;;;9.57;61.92
64388;BME280;50709;52.648;4.764;2023-01-28T04:01:52;103126.06;;;9.71;60.92
64388;BME280;50709;52.648;4.764;2023-01-28T04:04:17;103127.94;;;9.54;61.79
64388;BME280;50709;52.648;4.764;2023-01-28T04:06:50;103108.97;;;9.37;61.52
64388;BME280;50709;52.648;4.764;2023-01-28T04:09:15;103114.22;;;8.60;58.60
64388;BME280;50709;52.648;4.764;2023-01-28T04:11:41;103109.72;;;9.34;62.60
64388;BME280;50709;52.648;4.764;2023-01-28T04:14:07;103026.53;;;9.19;62.06
64388;BME280;50709;52.648;4.764;2023-01-28T04:16:32;103103.59;;;9.34;61.80
64388;BME280;50709;52.648;4.764;2023-01-28T04:18:58;103109.69;;;9.33;61.21
64388;BME280;50709;52.648;4.764;2023-01-28T04:21:23;103114.66;;;9.48;62.87
64388;BME280;50709;52.648;4.764;2023-01-28T04:23:49;103103.78;;;8.98;59.66
64388;BME280;50709;52.648;4.764;2023-01-28T04:26:34;103113.84;;;9.29;63.46
64388;BME280;50709;52.648;4.764;2023-01-28T04:29:01;103108.56;;;9.08;62.50
64388;BME280;50709;52.648;4.764;2023-01-28T04:31:27;103122.09;;;8.99;61.73
64388;BME280;50709;52.648;4.764;2023-01-28T04:33:52;103124.69;;;9.19;62.67
64388;BME280;50709;52.648;4.764;2023-01-28T04:36:18;103125.44;;;9.36;62.31
64388;BME280;50709;52.648;4.764;2023-01-28T04:38:43;103131.63;;;9.18;62.73
64388;BME280;50709;52.648;4.764;2023-01-28T04:41:09;103124.22;;;9.08;63.58
64388;BME280;50709;52.648;4.764;2023-01-28T04:43:54;103133.88;;;9.11;62.66
64388;BME280;50709;52.648;4.764;2023-01-28T04:46:20;103140.13;;;8.95;62.30
64388;BME280;50709;52.648;4.764;2023-01-28T04:48:46;103121.19;;;8.99;63.48
64388;BME280;50709;52.648;4.764;2023-01-28T04:51:12;103145.13;;;8.90;63.16
64388;BME280;50709;52.648;4.764;2023-01-28T04:53:37;103123.03;;;7.73;58.60
64388;BME280;50709;52.648;4.764;2023-01-28T04:56:03;103137.44;;;8.73;64.62
64388;BME280;50709;52.648;4.764;2023-01-28T04:58:29;103131.78;;;8.64;63.40
64388;BME280;50709;52.648;4.764;2023-01-28T05:00:56;103132.03;;;8.33;61.71
64388;BME280;50709;52.648;4.764;2023-01-28T05:03:22;103130.97;;;8.29;61.48
64388;BME280;50709;52.648;4.764;2023-01-28T05:05:48;103144.63;;;8.79;64.00
64388;BME280;50709;52.648;4.764;2023-01-28T05:08:14;103112.47;;;8.98;63.99
64388;BME280;50709;52.648;4.764;2023-01-28T05:10:39;103134.22;;;8.79;64.11
64388;BME280;50709;52.648;4.764;2023-01-28T05:13:08;103147.91;;;8.75;63.00
64388;BME280;50709;52.648;4.764;2023-01-28T05:15:34;103134.81;;;8.73;63.12
64388;BME280;50709;52.648;4.764;2023-01-28T05:17:59;103117.84;;;8.82;64.39
64388;BME280;50709;52.648;4.764;2023-01-28T05:20:25;103132.41;;;8.78;64.30
64388;BME280;50709;52.648;4.764;2023-01-28T05:22:51;103143.34;;;8.89;64.22
64388;BME280;50709;52.648;4.764;2023-01-28T05:25:16;103139.16;;;8.55;63.67
64388;BME280;50709;52.648;4.764;2023-01-28T05:27:42;103135.00;;;8.58;62.93
64388;BME280;50709;52.648;4.764;2023-01-28T05:30:08;103135.19;;;8.63;63.53
64388;BME280;50709;52.648;4.764;2023-01-28T05:32:33;103120.69;;;8.32;63.39
64388;BME280;50709;52.648;4.764;2023-01-28T05:34:59;103138.47;;;8.97;64.59
64388;BME280;50709;52.648;4.764;2023-01-28T05:37:24;103137.72;;;8.99;64.50
64388;BME280;50709;52.648;4.764;2023-01-28T05:39:50;103134.31;;;8.63;62.96
64388;BME280;50709;52.648;4.764;2023-01-28T05:42:15;103128.13;;;8.98;64.72
64388;BME280;50709;52.648;4.764;2023-01-28T05:44:42;103139.38;;;8.97;64.39
64388;BME280;50709;52.648;4.764;2023-01-28T05:47:09;103154.75;;;8.91;64.16
64388;BME280;50709;52.648;4.764;2023-01-28T05:49:35;103136.19;;;8.65;63.27
64388;BME280;50709;52.648;4.764;2023-01-28T05:52:00;103122.34;;;8.30;63.99
64388;BME280;50709;52.648;4.764;2023-01-28T05:54:27;103107.47;;;8.46;64.16
64388;BME280;50709;52.648;4.764;2023-01-28T05:56:53;103122.06;;;8.80;63.76
64388;BME280;50709;52.648;4.764;2023-01-28T05:59:18;103136.50;;;8.91;63.95
64388;BME280;50709;52.648;4.764;2023-01-28T06:01:44;103127.13;;;8.77;64.04
64388;BME280;50709;52.648;4.764;2023-01-28T06:04:09;103126.06;;;8.53;64.28
64388;BME280;50709;52.648;4.764;2023-01-28T06:06:34;103129.47;;;8.34;63.59
64388;BME280;50709;52.648;4.764;2023-01-28T06:09:00;103127.31;;;8.07;65.70
64388;BME280;50709;52.648;4.764;2023-01-28T06:11:25;103125.31;;;8.02;64.05
64388;BME280;50709;52.648;4.764;2023-01-28T06:13:51;103122.16;;;8.27;65.84
64388;BME280;50709;52.648;4.764;2023-01-28T06:16:17;103124.47;;;8.75;65.50
64388;BME280;50709;52.648;4.764;2023-01-28T06:18:42;103124.88;;;8.47;64.57
64388;BME280;50709;52.648;4.764;2023-01-28T06:21:09;103113.84;;;7.98;64.15
64388;BME280;50709;52.648;4.764;2023-01-28T06:23:34;103119.88;;;8.51;64.92
64388;BME280;50709;52.648;4.764;2023-01-28T06:25:59;103123.72;;;8.78;63.49
64388;BME280;50709;52.648;4.764;2023-01-28T06:28:25;103128.38;;;8.85;64.23
64388;BME280;50709;52.648;4.764;2023-01-28T06:30:51;103128.63;;;8.89;64.74
64388;BME280;50709;52.648;4.764;2023-01-28T06:33:17;103127.63;;;8.87;64.75
64388;BME280;50709;52.648;4.764;2023-01-28T06:35:43;103111.19;;;8.88;65.10
64388;BME280;50709;52.648;4.764;2023-01-28T06:38:09;103130.16;;;9.05;64.50
64388;BME280;50709;52.648;4.764;2023-01-28T06:40:35;103130.78;;;8.80;63.62
64388;BME280;50709;52.648;4.764;2023-01-28T06:43:00;103121.75;;;8.54;64.47
64388;BME280;50709;52.648;4.764;2023-01-28T06:45:25;103118.13;;;8.50;65.25
64388;BME280;50709;52.648;4.764;2023-01-28T06:47:51;103116.03;;;8.61;63.89
64388;BME280;50709;52.648;4.764;2023-01-28T06:50:16;103113.56;;;8.64;63.88
64388;BME280;50709;52.648;4.764;2023-01-28T06:52:42;103109.09;;;8.44;63.77
64388;BME280;50709;52.648;4.764;2023-01-28T06:55:08;103118.63;;;8.61;63.77
64388;BME280;50709;52.648;4.764;2023-01-28T06:57:33;103127.63;;;8.68;64.33
64388;BME280;50709;52.648;4.764;2023-01-28T07:00:01;103119.47;;;8.80;65.11
64388;BME280;50709;52.648;4.764;2023-01-28T07:02:26;103136.13;;;8.83;64.01
64388;BME280;50709;52.648;4.764;2023-01-28T07:04:52;103142.94;;;8.99;64.65
64388;BME280;50709;52.648;4.764;2023-01-28T07:07:17;103153.59;;;9.23;64.44
64388;BME280;50709;52.648;4.764;2023-01-28T07:09:43;103153.78;;;9.08;64.74
64388;BME280;50709;52.648;4.764;2023-01-28T07:12:08;103143.28;;;8.87;64.87
64388;BME280;50709;52.648;4.764;2023-01-28T07:14:34;103154.56;;;8.88;64.48
64388;BME280;50709;52.648;4.764;2023-01-28T07:16:59;103153.00;;;8.91;64.58
64388;BME280;50709;52.648;4.764;2023-01-28T07:19:24;103155.59;;;8.72;64.94
64388;BME280;50709;52.648;4.764;2023-01-28T07:21:50;103139.84;;;8.33;65.57
64388;BME280;50709;52.648;4.764;2023-01-28T07:24:15;103159.38;;;8.42;65.79
64388;BME280;50709;52.648;4.764;2023-01-28T07:26:41;103164.53;;;8.41;65.49
64388;BME280;50709;52.648;4.764;2023-01-28T07:29:07;103159.47;;;8.26;65.89
64388;BME280;50709;52.648;4.764;2023-01-28T07:31:33;103167.28;;;8.62;65.98
64388;BME280;50709;52.648;4.764;2023-01-28T07:34:19;103159.59;;;8.83;65.72
64388;BME280;50709;52.648;4.764;2023-01-28T07:36:44;103153.56;;;8.66;66.13
64388;BME280;50709;52.648;4.764;2023-01-28T07:39:10;103157.16;;;8.68;66.07
64388;BME280;50709;52.648;4.764;2023-01-28T07:41:35;103155.59;;;8.72;65.48
64388;BME280;50709;52.648;4.764;2023-01-28T07:44:01;103147.91;;;8.39;64.09
64388;BME280;50709;52.648;4.764;2023-01-28T07:46:46;103143.94;;;8.46;66.17
64388;BME280;50709;52.648;4.764;2023-01-28T07:49:12;103164.31;;;8.54;65.57
64388;BME280;50709;52.648;4.764;2023-01-28T07:51:37;103162.22;;;8.29;65.62
64388;BME280;50709;52.648;4.764;2023-01-28T07:54:03;103183.94;;;8.66;65.65
64388;BME280;50709;52.648;4.764;2023-01-28T07:56:30;103185.56;;;8.82;65.46
64388;BME280;50709;52.648;4.764;2023-01-28T07:58:55;103185.94;;;8.71;65.30
64388;BME280;50709;52.648;4.764;2023-01-28T08:01:21;103173.28;;;8.25;65.79
64388;BME280;50709;52.648;4.764;2023-01-28T08:03:46;103203.91;;;8.47;65.77
64388;BME280;50709;52.648;4.764;2023-01-28T08:06:11;103199.66;;;8.49;66.58
64388;BME280;50709;52.648;4.764;2023-01-28T08:08:37;103209.53;;;8.38;66.35
64388;BME280;50709;52.648;4.764;2023-01-28T08:11:08;103213.28;;;8.62;66.95
64388;BME280;50709;52.648;4.764;2023-01-28T08:13:35;103182.31;;;8.50;65.53
64388;BME280;50709;52.648;4.764;2023-01-28T08:16:01;103200.25;;;8.62;66.66
64388;BME280;50709;52.648;4.764;2023-01-28T08:18:26;103204.41;;;8.58;65.54
64388;BME280;50709;52.648;4.764;2023-01-28T08:20:56;103212.03;;;8.53;66.25
64388;BME280;50709;52.648;4.764;2023-01-28T08:23:22;103176.84;;;8.27;65.38
64388;BME280;50709;52.648;4.764;2023-01-28T08:25:48;103209.56;;;8.56;66.73
64388;BME280;50709;52.648;4.764;2023-01-28T08:28:15;103214.53;;;8.70;66.17
64388;BME280;50709;52.648;4.764;2023-01-28T08:30:41;103217.97;;;8.69;65.50
64388;BME280;50709;52.648;4.764;2023-01-28T08:33:09;103212.97;;;8.73;65.88
64388;BME280;50709;52.648;4.764;2023-01-28T08:35:35;103193.88;;;8.20;65.09
64388;BME280;50709;52.648;4.764;2023-01-28T08:38:02;103216.41;;;8.54;65.95
64388;BME280;50709;52.648;4.764;2023-01-28T08:40:28;103168.50;;;8.16;66.21
64388;BME280;50709;52.648;4.764;2023-01-28T08:42:54;103219.16;;;8.75;65.83
64388;BME280;50709;52.648;4.764;2023-01-28T08:45:21;103165.94;;;8.52;66.51
64388;BME280;50709;52.648;4.764;2023-01-28T08:47:53;103220.56;;;8.51;66.53
64388;BME280;50709;52.648;4.764;2023-01-28T08:50:20;103228.44;;;8.70;66.06
64388;BME280;50709;52.648;4.764;2023-01-28T08:52:46;103227.25;;;8.64;66.41
64388;BME280;50709;52.648;4.764;2023-01-28T08:55:14;103219.38;;;8.62;65.09
64388;BME280;50709;52.648;4.764;2023-01-28T08:57:40;103228.78;;;8.58;65.58
64388;BME280;50709;52.648;4.764;2023-01-28T09:00:07;103177.97;;;8.32;65.42
64388;BME280;50709;52.648;4.764;2023-01-28T09:02:35;103232.31;;;8.61;64.84
64388;BME280;50709;52.648;4.764;2023-01-28T09:05:01;103231.97;;;8.71;66.04
64388;BME280;50709;52.648;4.764;2023-01-28T09:07:26;103219.22;;;8.59;65.24
64388;BME280;50709;52.648;4.764;2023-01-28T09:09:51;103227.69;;;8.73;64.63
64388;BME280;50709;52.648;4.764;2023-01-28T09:12:17;103243.78;;;8.82;64.54
64388;BME280;50709;52.648;4.764;2023-01-28T09:14:42;103219.22;;;8.59;64.10
64388;BME280;50709;52.648;4.764;2023-01-28T09:17:08;103242.09;;;8.83;64.13
64388;BME280;50709;52.648;4.764;2023-01-28T09:19:33;103245.75;;;8.50;63.31
64388;BME280;50709;52.648;4.764;2023-01-28T09:21:58;103241.88;;;8.60;62.86
64388;BME280;50709;52.648;4.764;2023-01-28T09:24:24;103245.66;;;8.67;61.98
64388;BME280;50709;52.648;4.764;2023-01-28T09:26:50;103252.41;;;8.99;61.73
64388;BME280;50709;52.648;4.764;2023-01-28T09:29:15;103234.47;;;8.87;60.69
64388;BME280;50709;52.648;4.764;2023-01-28T09:31:42;103251.31;;;8.94;60.68
64388;BME280;50709;52.648;4.764;2023-01-28T09:34:08;103259.44;;;9.00;60.60
64388;BME280;50709;52.648;4.764;2023-01-28T09:36:34;103240.69;;;9.09;60.61
64388;BME280;50709;52.648;4.764;2023-01-28T09:39:20;103248.88;;;9.17;63.23
64388;BME280;50709;52.648;4.764;2023-01-28T09:47:40;103244.91;;;9.45;64.42
64388;BME280;50709;52.648;4.764;2023-01-28T09:50:14;103258.75;;;9.62;63.92
64388;BME280;50709;52.648;4.764;2023-01-28T09:52:40;103256.03;;;9.80;64.24
64388;BME280;50709;52.648;4.764;2023-01-28T09:55:16;103237.00;;;10.02;64.26
64388;BME280;50709;52.648;4.764;2023-01-28T09:57:51;103257.13;;;10.25;63.15
64388;BME280;50709;52.648;4.764;2023-01-28T10:00:23;103223.38;;;10.09;61.56
64388;BME280;50709;52.648;4.764;2023-01-28T10:03:24;103257.41;;;10.74;59.95
64388;BME280;50709;52.648;4.764;2023-01-28T10:08:42;103245.06;;;10.92;59.04
64388;BME280;50709;52.648;4.764;2023-01-28T10:20:04;103216.03;;;11.80;58.82
64388;BME280;50709;52.648;4.764;2023-01-28T10:23:01;103214.81;;;11.70;56.88
64388;BME280;50709;52.648;4.764;2023-01-28T10:25:30;103209.84;;;11.54;57.70
64388;BME280;50709;52.648;4.764;2023-01-28T10:27:57;103211.34;;;11.47;57.69
64388;BME280;50709;52.648;4.764;2023-01-28T10:30:24;103166.03;;;11.24;57.10
64388;BME280;50709;52.648;4.764;2023-01-28T10:32:55;103195.44;;;11.41;57.44
64388;BME280;50709;52.648;4.764;2023-01-28T10:35:23;103178.44;;;11.30;56.16
64388;BME280;50709;52.648;4.764;2023-01-28T10:37:59;103131.44;;;11.07;56.15
64388;BME280;50709;52.648;4.764;2023-01-28T10:40:26;103180.81;;;11.46;57.63
64388;BME280;50709;52.648;4.764;2023-01-28T10:42:52;103168.59;;;11.22;56.21
64388;BME280;50709;52.648;4.764;2023-01-28T10:45:26;103142.25;;;11.16;56.23
64388;BME280;50709;52.648;4.764;2023-01-28T10:50:22;103114.69;;;12.88;56.28
64388;BME280;50709;52.648;4.764;2023-01-28T10:53:00;103141.53;;;12.51;54.83
64388;BME280;50709;52.648;4.764;2023-01-28T10:55:29;103125.97;;;12.01;56.29
64388;BME280;50709;52.648;4.764;2023-01-28T10:57:55;103128.75;;;12.05;55.31
64388;BME280;50709;52.648;4.764;2023-01-28T11:00:22;103141.81;;;12.31;53.90
64388;BME280;50709;52.648;4.764;2023-01-28T11:02:49;103117.38;;;12.05;58.42
64388;BME280;50709;52.648;4.764;2023-01-28T11:05:17;103148.63;;;12.26;57.70
64388;BME280;50709;52.648;4.764;2023-01-28T11:07:45;103095.25;;;11.43;53.65
64388;BME280;50709;52.648;4.764;2023-01-28T11:10:28;103122.41;;;11.73;56.84
64388;BME280;50709;52.648;4.764;2023-01-28T11:12:58;103135.34;;;11.68;58.66
64388;BME280;50709;52.648;4.764;2023-01-28T11:15:24;103113.09;;;11.05;56.24
64388;BME280;50709;52.648;4.764;2023-01-28T11:18:03;103126.81;;;11.24;58.95
64388;BME280;50709;52.648;4.764;2023-01-28T11:20:48;103138.72;;;11.16;58.22
64388;BME280;50709;52.648;4.764;2023-01-28T11:23:23;103148.59;;;10.99;58.10
64388;BME280;50709;52.648;4.764;2023-01-28T11:26:03;103169.28;;;11.65;58.73
64388;BME280;50709;52.648;4.764;2023-01-28T11:28:30;103169.00;;;11.83;55.79
64388;BME280;50709;52.648;4.764;2023-01-28T11:30:58;103168.97;;;12.07;56.24
64388;BME280;50709;52.648;4.764;2023-01-28T11:36:03;103141.25;;;13.31;52.26
64388;BME280;50709;52.648;4.764;2023-01-28T11:38:29;103178.97;;;14.00;49.69
64388;BME280;50709;52.648;4.764;2023-01-28T11:40:56;103172.34;;;14.92;46.95
64388;BME280;50709;52.648;4.764;2023-01-28T11:43:26;103098.34;;;13.62;48.78
64388;BME280;50709;52.648;4.764;2023-01-28T11:51:35;103174.53;;;15.58;46.29
64388;BME280;50709;52.648;4.764;2023-01-28T11:56:54;103157.13;;;15.20;47.84
64388;BME280;50709;52.648;4.764;2023-01-28T11:59:43;103147.19;;;16.02;45.78
64388;BME280;50709;52.648;4.764;2023-01-28T12:02:20;103127.72;;;16.52;44.66
64388;BME280;50709;52.648;4.764;2023-01-28T12:15:19;103096.69;;;15.75;46.24
64388;BME280;50709;52.648;4.764;2023-01-28T12:23:38;103087.66;;;15.10;47.41
64388;BME280;50709;52.648;4.764;2023-01-28T12:26:48;103072.75;;;16.17;45.43
64388;BME280;50709;52.648;4.764;2023-01-28T12:29:32;103073.16;;;15.34;43.56
64388;BME280;50709;52.648;4.764;2023-01-28T12:40:18;103093.09;;;15.72;46.79
64388;BME280;50709;52.648;4.764;2023-01-28T12:42:53;103097.53;;;15.74;46.32
64388;BME280;50709;52.648;4.764;2023-01-28T12:45:31;103096.59;;;14.76;46.49
64388;BME280;50709;52.648;4.764;2023-01-28T12:48:05;103078.00;;;14.67;48.42
64388;BME280;50709;52.648;4.764;2023-01-28T12:50:36;103081.50;;;16.14;45.91
64388;BME280;50709;52.648;4.764;2023-01-28T12:56:08;103083.91;;;14.99;44.66
64388;BME280;50709;52.648;4.764;2023-01-28T12:58:39;103067.22;;;15.46;46.54
64388;BME280;50709;52.648;4.764;2023-01-28T13:01:11;103084.34;;;15.71;45.01
64388;BME280;50709;52.648;4.764;2023-01-28T13:03:48;103038.94;;;15.36;45.36
64388;BME280;50709;52.648;4.764;2023-01-28T13:06:23;103000.06;;;14.72;47.03
64388;BME280;50709;52.648;4.764;2023-01-28T13:08:55;103045.78;;;14.77;48.05
64388;BME280;50709;52.648;4.764;2023-01-28T13:11:23;103071.22;;;15.24;48.00
64388;BME280;50709;52.648;4.764;2023-01-28T13:13:50;103089.06;;;15.91;48.09
64388;BME280;50709;52.648;4.764;2023-01-28T13:16:15;103072.69;;;16.12;47.05
64388;BME280;50709;52.648;4.764;2023-01-28T13:18:42;103076.81;;;16.57;46.59
64388;BME280;50709;52.648;4.764;2023-01-28T13:21:35;103079.09;;;17.00;44.86
64388;BME280;50709;52.648;4.764;2023-01-28T13:31:44;103047.56;;;15.25;52.35
64388;BME280;50709;52.648;4.764;2023-01-28T13:34:36;103062.81;;;15.46;49.17
64388;BME280;50709;52.648;4.764;2023-01-28T13:37:23;103080.94;;;15.78;47.01
64388;BME280;50709;52.648;4.764;2023-01-28T13:40:06;103080.16;;;15.84;47.94
64388;BME280;50709;52.648;4.764;2023-01-28T13:42:34;103033.66;;;15.85;47.91
64388;BME280;50709;52.648;4.764;2023-01-28T13:45:29;103072.91;;;15.72;49.43
64388;BME280;50709;52.648;4.764;2023-01-28T13:48:13;103069.50;;;16.36;48.89
64388;BME280;50709;52.648;4.764;2023-01-28T13:50:41;103057.59;;;16.03;48.95
64388;BME280;50709;52.648;4.764;2023-01-28T13:55:56;103051.63;;;16.15;48.24
64388;BME280;50709;52.648;4.764;2023-01-28T14:07:39;103056.88;;;16.12;47.56
64388;BME280;50709;52.648;4.764;2023-01-28T14:13:11;103054.22;;;16.78;46.99
64388;BME280;50709;52.648;4.764;2023-01-28T14:15:59;103049.84;;;16.12;44.77
64388;BME280;50709;52.648;4.764;2023-01-28T14:18:31;103058.38;;;14.93;49.04
64388;BME280;50709;52.648;4.764;2023-01-28T14:21:00;103060.09;;;15.92;48.72
64388;BME280;50709;52.648;4.764;2023-01-28T14:23:26;103053.25;;;16.05;47.51
64388;BME280;50709;52.648;4.764;2023-01-28T14:31:37;103044.09;;;15.28;47.81
64388;BME280;50709;52.648;4.764;2023-01-28T14:36:43;103088.75;;;15.23;49.05
64388;BME280;50709;52.648;4.764;2023-01-28T14:39:20;103109.66;;;15.16;49.52
64388;BME280;50709;52.648;4.764;2023-01-28T14:41:51;103077.13;;;16.16;48.58
64388;BME280;50709;52.648;4.764;2023-01-28T14:44:34;103107.31;;;15.80;48.16
64388;BME280;50709;52.648;4.764;2023-01-28T14:50:02;103087.25;;;16.48;46.49
64388;BME280;50709;52.648;4.764;2023-01-28T14:55:51;103105.16;;;15.57;47.11
64388;BME280;50709;52.648;4.764;2023-01-28T14:58:32;103056.19;;;15.69;48.20
64388;BME280;50709;52.648;4.764;2023-01-28T15:01:00;103081.16;;;15.92;48.88
64388;BME280;50709;52.648;4.764;2023-01-28T15:03:27;103092.63;;;15.94;48.82
64388;BME280;50709;52.648;4.764;2023-01-28T15:06:11;103060.19;;;15.46;49.24
64388;BME280;50709;52.648;4.764;2023-01-28T15:08:37;103114.25;;;15.26;49.02